Time;durP1;ratioP1;P1;durP2;ratioP2;P2;SDS_P1;SDS_P2;PMS_P1;PMS_P2;Temp;Humidity;BMP_temperature;BMP_pressure;BME280_temperature;BME280_humidity;BME280_pressure;Samples;Min_cycle;Max_cycle;Signal;HPM_P1;HPM_P2
2021/08/03 00:01:15;;;;;;;16.20;11.05;;;;;;;24.69;80.21;100818.00;1713325;83;20960;-76
2021/08/03 00:04:12;;;;;;;14.47;11.45;;;;;;;24.69;80.08;100819.33;1711338;83;21056;-75
2021/08/03 00:06:56;;;;;;;19.87;11.75;;;;;;;24.70;80.00;100834.72;1751931;82;21543;-75
2021/08/03 00:09:25;;;;;;;16.32;11.93;;;;;;;24.70;79.79;100838.20;1752128;82;21420;-75
2021/08/03 00:11:51;;;;;;;17.90;11.85;;;;;;;24.68;79.51;100842.05;1751792;82;21492;-76
2021/08/03 00:14:19;;;;;;;18.95;12.15;;;;;;;24.65;79.55;100838.45;1751952;82;21511;-73
2021/08/03 00:16:47;;;;;;;17.70;11.40;;;;;;;24.65;79.67;100854.37;1753992;81;21549;-75
2021/08/03 00:19:14;;;;;;;20.25;11.45;;;;;;;24.64;79.60;100857.53;1757259;81;20992;-73
2021/08/03 00:21:41;;;;;;;17.90;12.05;;;;;;;24.62;79.54;100858.73;1757320;81;21533;-74
2021/08/03 00:24:09;;;;;;;19.15;11.50;;;;;;;24.58;79.60;100854.80;1757626;81;21159;-77
2021/08/03 00:26:35;;;;;;;17.45;11.90;;;;;;;24.52;79.73;100847.59;1757280;81;20984;-75
2021/08/03 00:29:02;;;;;;;15.88;11.63;;;;;;;24.47;79.94;100857.45;1705482;81;21434;-74
2021/08/03 00:31:31;;;;;;;19.90;10.75;;;;;;;24.45;80.07;100863.43;1757199;81;20951;-74
2021/08/03 00:33:58;;;;;;;17.32;11.15;;;;;;;24.44;80.07;100863.64;1757396;81;21023;-75
2021/08/03 00:36:29;;;;;;;15.10;10.65;;;;;;;24.43;80.10;100862.81;1757424;81;21976;-76
2021/08/03 00:38:58;;;;;;;16.62;10.72;;;;;;;24.42;80.07;100866.95;1757287;81;21047;-75
2021/08/03 00:41:39;;;;;;;17.02;10.43;;;;;;;24.38;80.16;100879.77;1757520;81;20986;-81
2021/08/03 00:44:07;;;;;;;14.23;10.45;;;;;;;24.36;80.33;100880.47;1757295;81;21003;-76
2021/08/03 00:46:35;;;;;;;18.10;10.18;;;;;;;24.32;80.43;100873.88;1757437;81;21066;-75
2021/08/03 00:49:04;;;;;;;12.40;8.75;;;;;;;24.24;80.67;100875.32;1757159;81;21557;-75
2021/08/03 00:51:32;;;;;;;13.65;8.83;;;;;;;24.19;81.04;100878.52;1757181;81;20968;-75
2021/08/03 00:53:59;;;;;;;16.02;9.15;;;;;;;24.18;81.35;100882.19;1757210;81;21039;-74
2021/08/03 00:56:29;;;;;;;12.82;8.20;;;;;;;24.18;81.49;100887.99;1757388;81;21007;-75
2021/08/03 00:58:57;;;;;;;13.83;7.87;;;;;;;24.15;81.67;100886.51;1757460;81;20983;-75
2021/08/03 01:01:25;;;;;;;14.83;8.80;;;;;;;24.13;81.94;100884.55;1757491;81;22090;-75
2021/08/03 01:03:52;;;;;;;12.93;7.37;;;;;;;24.12;82.20;100878.92;1757459;81;21435;-76
2021/08/03 01:06:37;;;;;;;14.45;6.75;;;;;;;24.12;82.40;100870.17;1757383;81;21481;-75
2021/08/03 01:09:25;;;;;;;11.65;8.00;;;;;;;24.12;82.59;100871.50;1757283;81;21085;-75
2021/08/03 01:11:58;;;;;;;11.18;7.67;;;;;;;24.09;82.84;100864.67;1757462;81;20888;-76
2021/08/03 01:14:52;;;;;;;11.45;7.87;;;;;;;24.05;83.14;100865.24;1757381;81;21120;-74
2021/08/03 01:18:06;;;;;;;12.37;7.10;;;;;;;24.02;83.51;100866.94;1751082;81;20928;-77
2021/08/03 01:21:06;;;;;;;8.55;7.28;;;;;;;23.94;84.04;100856.41;1704878;84;21504;-75
2021/08/03 01:24:12;;;;;;;10.05;7.08;;;;;;;23.85;84.56;100855.69;1705759;84;20901;-77
2021/08/03 01:27:19;;;;;;;13.00;7.37;;;;;;;23.77;85.23;100866.39;1740223;81;20936;-76
2021/08/03 01:29:48;;;;;;;11.08;7.30;;;;;;;23.68;85.78;100878.05;1744298;81;21116;-75
2021/08/03 01:32:20;;;;;;;9.75;6.85;;;;;;;23.59;86.35;100885.27;1746493;82;20959;-77
2021/08/03 01:34:47;;;;;;;10.63;7.00;;;;;;;23.58;86.73;100893.41;1744083;81;20889;-74
2021/08/03 01:37:19;;;;;;;9.70;7.35;;;;;;;23.55;87.06;100895.89;1744010;82;21484;-74
2021/08/03 01:39:55;;;;;;;11.28;7.58;;;;;;;23.54;87.41;100904.03;1744015;82;20992;-74
2021/08/03 01:42:23;;;;;;;10.20;6.83;;;;;;;23.52;87.68;100902.04;1708167;84;21808;-78
2021/08/03 01:44:52;;;;;;;9.05;7.60;;;;;;;23.48;87.94;100903.42;1744036;81;21522;-74
2021/08/03 01:47:24;;;;;;;9.78;7.05;;;;;;;23.45;88.21;100902.46;1708118;84;21521;-75
2021/08/03 01:49:52;;;;;;;11.35;7.50;;;;;;;23.41;88.42;100899.34;1708299;84;20932;-78
2021/08/03 01:52:18;;;;;;;12.98;7.12;;;;;;;23.36;88.72;100894.20;1708374;84;21003;-74
2021/08/03 01:54:48;;;;;;;12.23;7.35;;;;;;;23.31;89.12;100900.05;1744258;81;21125;-79
2021/08/03 01:57:16;;;;;;;13.70;8.00;;;;;;;23.27;89.33;100909.83;1743984;82;21012;-76
2021/08/03 01:59:45;;;;;;;11.20;6.97;;;;;;;23.18;89.72;100911.73;1744086;82;20889;-73
2021/08/03 02:02:17;;;;;;;12.85;7.83;;;;;;;23.13;90.06;100926.01;1744090;81;20885;-76
2021/08/03 02:04:49;;;;;;;14.93;7.30;;;;;;;23.06;90.45;100930.34;1744097;82;20881;-76
2021/08/03 02:07:17;;;;;;;13.20;7.25;;;;;;;23.00;90.77;100942.47;1743934;81;21132;-78
2021/08/03 02:09:45;;;;;;;13.80;7.92;;;;;;;22.95;91.21;100958.03;1693923;82;20936;-78
2021/08/03 02:12:12;;;;;;;13.55;8.05;;;;;;;22.95;91.41;100962.50;1744019;81;21601;-75
2021/08/03 02:14:45;;;;;;;15.20;6.80;;;;;;;22.92;91.41;100949.12;1744086;81;21015;-75
2021/08/03 02:17:21;;;;;;;13.60;7.55;;;;;;;22.91;91.52;100938.72;1710418;83;20935;-79
2021/08/03 02:19:51;;;;;;;10.95;7.60;;;;;;;22.91;91.50;100938.72;1751384;81;21799;-78
2021/08/03 02:22:19;;;;;;;14.93;9.15;;;;;;;22.88;91.37;100951.78;1752106;82;21490;-80
2021/08/03 02:25:04;;;;;;;11.18;7.83;;;;;;;22.84;91.44;100967.70;1714806;83;20927;-74
2021/08/03 02:27:31;;;;;;;14.07;8.60;;;;;;;22.79;91.49;100963.90;1716012;83;21484;-75
2021/08/03 02:29:58;;;;;;;12.93;8.60;;;;;;;22.77;91.57;100961.94;1716031;83;21570;-75
2021/08/03 02:33:06;;;;;;;12.95;9.40;;;;;;;22.73;91.58;100957.98;1715893;83;21959;-76
2021/08/03 02:35:44;;;;;;;15.58;8.60;;;;;;;22.69;91.71;100956.17;1715872;83;21419;-75
2021/08/03 02:38:15;;;;;;;16.95;8.63;;;;;;;22.63;91.83;100957.66;1752057;82;21577;-80
2021/08/03 02:40:43;;;;;;;11.25;8.88;;;;;;;22.59;91.97;100959.52;1716202;83;21053;-77
2021/08/03 02:43:14;;;;;;;13.32;9.00;;;;;;;22.55;92.21;100962.17;1687540;83;21033;-78
2021/08/03 02:45:42;;;;;;;15.50;9.45;;;;;;;22.52;92.42;100963.84;1715736;83;21505;-75
2021/08/03 02:48:11;;;;;;;15.30;9.93;;;;;;;22.49;92.51;100963.69;1715924;83;21541;-79
2021/08/03 02:50:41;;;;;;;12.95;8.60;;;;;;;22.50;92.49;100963.16;1681976;83;20958;-78
2021/08/03 02:53:24;;;;;;;14.45;8.65;;;;;;;22.47;92.44;100970.95;1715864;83;20962;-74
2021/08/03 02:55:55;;;;;;;16.80;11.03;;;;;;;22.45;92.33;100977.41;1713452;83;21499;-73
2021/08/03 02:58:42;;;;;;;16.45;9.88;;;;;;;22.45;92.33;100977.41;1752050;81;21915;-78
2021/08/03 03:01:09;;;;;;;16.55;9.45;;;;;;;22.44;92.26;100986.33;1752010;82;20995;-78
2021/08/03 03:03:42;;;;;;;15.38;9.63;;;;;;;22.38;92.28;100981.23;1716523;82;21592;-77
2021/08/03 03:06:11;;;;;;;16.00;10.15;;;;;;;22.33;92.48;100994.14;1732585;82;20948;-77
2021/08/03 03:08:43;;;;;;;16.30;9.93;;;;;;;22.31;92.79;100999.25;1752187;82;21047;-83
2021/08/03 03:11:12;;;;;;;13.93;9.78;;;;;;;22.25;93.07;100995.47;1751833;81;21120;-80
2021/08/03 03:13:51;;;;;;;17.35;9.60;;;;;;;22.22;93.39;101001.09;1751837;82;20932;-76
2021/08/03 03:16:21;;;;;;;15.28;9.23;;;;;;;22.21;93.73;101007.89;1752035;82;21073;-74
2021/08/03 03:18:48;;;;;;;13.43;8.45;;;;;;;22.14;93.94;101015.14;1709362;83;20995;-84
2021/08/03 03:21:19;;;;;;;18.95;9.20;;;;;;;22.07;94.19;101020.79;1708087;84;20888;-76
2021/08/03 03:23:50;;;;;;;14.55;8.63;;;;;;;22.05;94.44;101021.92;1733613;82;21111;-81
2021/08/03 03:26:17;;;;;;;17.20;9.03;;;;;;;22.04;94.52;101016.33;1744318;81;21527;-80
2021/08/03 03:28:44;;;;;;;15.40;8.20;;;;;;;22.05;94.54;101017.47;1744433;82;21048;-77
2021/08/03 03:31:12;;;;;;;18.90;8.05;;;;;;;22.10;94.36;101011.69;1743861;82;20967;-79
2021/08/03 03:33:41;;;;;;;14.93;8.78;;;;;;;22.12;94.10;101009.20;1744310;81;21016;-77
2021/08/03 03:36:09;;;;;;;15.58;8.08;;;;;;;22.15;93.85;101021.26;1743936;81;21123;-75
2021/08/03 03:38:38;;;;;;;18.77;7.90;;;;;;;22.15;93.77;101019.44;1744158;81;20959;-78
2021/08/03 03:41:06;;;;;;;14.05;7.35;;;;;;;22.16;93.69;101025.56;1743959;81;20952;-82
2021/08/03 03:43:36;;;;;;;9.80;7.28;;;;;;;22.17;93.82;101029.03;1744142;81;20928;-75
2021/08/03 03:46:08;;;;;;;17.55;7.42;;;;;;;22.20;93.83;101030.85;1744096;82;22420;-78
2021/08/03 03:48:40;;;;;;;12.05;6.45;;;;;;;22.23;93.57;101039.77;1686663;84;21804;-82
2021/08/03 03:51:09;;;;;;;12.93;7.60;;;;;;;22.26;93.40;101044.72;1682367;84;20999;-75
2021/08/03 03:53:43;;;;;;;12.68;6.80;;;;;;;22.31;93.13;101049.48;1708403;84;20928;-75
2021/08/03 03:56:11;;;;;;;9.68;6.70;;;;;;;22.34;92.82;101064.52;1708281;84;21483;-79
2021/08/03 03:58:40;;;;;;;8.85;5.80;;;;;;;22.40;92.45;101077.08;1733401;82;21510;-76
2021/08/03 04:01:09;;;;;;;15.40;7.25;;;;;;;22.45;92.07;101074.77;1743989;82;21285;-75
2021/08/03 04:03:37;;;;;;;9.78;6.42;;;;;;;22.49;91.79;101066.00;1687228;84;20979;-77
2021/08/03 04:06:06;;;;;;;12.88;7.20;;;;;;;22.52;91.60;101061.20;1708266;84;21007;-77
2021/08/03 04:08:38;;;;;;;9.23;6.17;;;;;;;22.56;91.35;101043.98;1708312;84;20955;-79
2021/08/03 04:11:08;;;;;;;10.43;6.03;;;;;;;22.59;90.98;101035.70;1708064;84;21038;-78
2021/08/03 04:13:38;;;;;;;11.43;6.22;;;;;;;22.60;90.69;101032.56;1708115;84;20951;-80
2021/08/03 04:16:06;;;;;;;12.93;5.75;;;;;;;22.60;90.62;101028.60;1708085;84;21038;-75
2021/08/03 04:18:34;;;;;;;10.75;5.85;;;;;;;22.61;90.56;101036.87;1708256;82;20892;-78
2021/08/03 04:21:01;;;;;;;9.18;6.03;;;;;;;22.62;90.44;101040.66;1708129;84;21016;-80
2021/08/03 04:23:29;;;;;;;9.90;5.22;;;;;;;22.65;90.32;101033.73;1708767;84;21458;-79
2021/08/03 04:25:56;;;;;;;24.18;6.90;;;;;;;22.69;90.08;101027.61;1708254;84;21565;-78
2021/08/03 04:28:24;;;;;;;8.70;5.35;;;;;;;22.71;89.88;101022.98;1708119;84;21030;-78
2021/08/03 04:30:51;;;;;;;15.25;5.08;;;;;;;22.75;89.43;101019.51;1708220;84;21562;-78
2021/08/03 04:33:18;;;;;;;7.67;5.00;;;;;;;22.78;89.11;101023.96;1708365;84;20963;-83
2021/08/03 04:35:44;;;;;;;6.80;5.25;;;;;;;22.83;88.80;101031.37;1708329;84;20995;-75
2021/08/03 04:38:11;;;;;;;10.78;5.05;;;;;;;22.89;88.43;101046.06;1708160;84;21113;-76
2021/08/03 04:40:38;;;;;;;9.50;5.30;;;;;;;22.96;88.09;101044.88;1708203;84;21537;-73
2021/08/03 04:43:06;;;;;;;6.58;5.03;;;;;;;23.04;87.56;101035.56;1708219;84;21499;-77
2021/08/03 04:45:34;;;;;;;13.30;5.85;;;;;;;23.13;86.95;101027.94;1708422;84;21030;-78
2021/08/03 04:48:00;;;;;;;9.45;5.22;;;;;;;23.20;86.52;101012.98;1708233;84;21510;-80
2021/08/03 04:50:28;;;;;;;6.47;4.37;;;;;;;23.28;86.12;100999.70;1708437;84;21122;-78
2021/08/03 04:52:56;;;;;;;8.80;4.92;;;;;;;23.39;84.90;101000.61;1708124;84;21019;-76
2021/08/03 04:55:23;;;;;;;11.90;5.15;;;;;;;23.42;84.17;101000.82;1708124;84;21055;-76
2021/08/03 04:57:50;;;;;;;7.45;4.87;;;;;;;23.47;83.95;101020.47;1708300;84;21049;-75
2021/08/03 05:00:16;;;;;;;9.15;4.60;;;;;;;23.53;83.72;101036.98;1708306;84;20939;-75
2021/08/03 05:02:45;;;;;;;9.35;5.53;;;;;;;23.59;82.90;101050.02;1708297;84;21439;-76
2021/08/03 05:05:12;;;;;;;9.48;5.17;;;;;;;23.60;82.36;101059.63;1708294;84;20980;-78
2021/08/03 05:07:39;;;;;;;38.88;6.47;;;;;;;23.59;81.77;101073.87;1708324;84;20991;-76
2021/08/03 05:10:13;;;;;;;7.25;5.17;;;;;;;23.58;81.68;101069.06;1708487;84;21419;-77
2021/08/03 05:12:40;;;;;;;10.98;5.70;;;;;;;23.58;81.65;101046.55;1708510;84;21060;-75
2021/08/03 05:15:10;;;;;;;12.60;5.00;;;;;;;23.58;81.51;101022.70;1708224;84;21537;-77
2021/08/03 05:17:38;;;;;;;8.38;4.65;;;;;;;23.59;81.13;101004.48;1708860;83;21010;-77
2021/08/03 05:20:07;;;;;;;7.20;4.62;;;;;;;23.62;80.42;100998.83;1752163;82;20861;-75
2021/08/03 05:22:33;;;;;;;17.42;5.22;;;;;;;23.67;80.07;101015.04;1751832;82;20951;-74
2021/08/03 05:25:01;;;;;;;13.55;4.60;;;;;;;23.73;80.01;101025.42;1751971;82;20979;-76
2021/08/03 05:27:27;;;;;;;9.75;4.80;;;;;;;23.81;79.72;101035.94;1733030;82;21610;-75
2021/08/03 05:29:56;;;;;;;7.72;4.28;;;;;;;23.85;78.99;101045.20;1751752;82;21522;-74
2021/08/03 05:32:23;;;;;;;8.30;4.47;;;;;;;23.91;78.89;101061.71;1751935;82;21534;-74
2021/08/03 05:34:50;;;;;;;7.08;4.47;;;;;;;23.99;78.66;101086.84;1715844;83;21497;-74
2021/08/03 05:37:19;;;;;;;7.75;4.50;;;;;;;24.03;78.35;101107.17;1715889;83;20975;-72
2021/08/03 05:39:46;;;;;;;9.78;5.15;;;;;;;24.05;77.83;101106.52;1715854;83;22235;-73
2021/08/03 05:42:12;;;;;;;12.23;5.45;;;;;;;24.06;77.50;101086.44;1715603;83;21005;-78
2021/08/03 05:44:41;;;;;;;10.38;5.33;;;;;;;24.09;77.23;101043.66;1715843;83;20935;-78
2021/08/03 05:47:09;;;;;;;9.25;5.50;;;;;;;24.13;77.01;101018.96;1715966;83;21544;-77
2021/08/03 05:49:36;;;;;;;7.45;5.17;;;;;;;24.12;76.83;101015.48;1704116;83;21019;-77
2021/08/03 05:52:04;;;;;;;12.63;5.40;;;;;;;24.13;77.03;101025.59;1686530;85;21036;-76
2021/08/03 05:54:30;;;;;;;12.18;6.58;;;;;;;24.14;77.59;101036.53;1686100;85;21529;-74
2021/08/03 05:56:58;;;;;;;12.73;6.30;;;;;;;24.17;78.65;101049.43;1687023;83;20907;-74
2021/08/03 05:59:25;;;;;;;10.98;5.42;;;;;;;24.25;78.67;101046.69;1686918;83;21069;-74
2021/08/03 06:01:58;;;;;;;15.35;6.70;;;;;;;24.32;78.18;101055.58;1686707;83;20983;-75
2021/08/03 06:04:26;;;;;;;12.68;5.75;;;;;;;24.39;78.46;101065.80;1722088;83;21325;-75
2021/08/03 06:06:55;;;;;;;12.63;6.50;;;;;;;24.45;78.45;101089.44;1721995;82;20936;-76
2021/08/03 06:09:23;;;;;;;11.48;6.17;;;;;;;24.48;77.98;101089.91;1721984;83;20948;-75
2021/08/03 06:11:52;;;;;;;12.85;6.42;;;;;;;24.51;77.58;101101.48;1722030;83;20948;-76
2021/08/03 06:14:36;;;;;;;11.68;5.75;;;;;;;24.52;77.74;101100.48;1722071;82;21101;-75
2021/08/03 06:17:07;;;;;;;10.78;5.80;;;;;;;24.55;77.87;101082.88;1722030;83;21732;-75
2021/08/03 06:19:48;;;;;;;10.05;6.42;;;;;;;24.54;77.74;101074.59;1716316;83;21050;-75
2021/08/03 06:22:16;;;;;;;10.28;6.08;;;;;;;24.53;78.29;101069.48;1682595;84;21161;-76
2021/08/03 06:24:45;;;;;;;9.85;5.90;;;;;;;24.49;78.37;101075.64;1690218;84;21022;-76
2021/08/03 06:27:18;;;;;;;12.35;6.42;;;;;;;24.48;78.58;101081.95;1700800;84;21133;-74
2021/08/03 06:29:45;;;;;;;16.48;6.20;;;;;;;24.49;78.48;101096.04;1694274;84;22170;-76
2021/08/03 06:32:11;;;;;;;17.15;5.85;;;;;;;24.50;78.48;101097.70;1680173;85;21514;-76
2021/08/03 06:34:43;;;;;;;7.83;5.75;;;;;;;24.51;78.62;101094.84;1703880;84;21010;-75
2021/08/03 06:37:11;;;;;;;8.78;5.35;;;;;;;24.60;77.75;101100.39;1708465;84;21035;-74
2021/08/03 06:39:38;;;;;;;14.87;6.35;;;;;;;24.73;76.96;101103.24;1708417;84;21687;-75
2021/08/03 06:42:42;;;;;;;16.30;6.85;;;;;;;24.89;75.99;101096.96;1708072;84;21126;-77
2021/08/03 06:45:29;;;;;;;12.50;6.20;;;;;;;25.05;75.35;101095.44;1743985;81;20980;-75
2021/08/03 06:48:14;;;;;;;13.90;6.72;;;;;;;25.23;74.39;101089.25;1743855;82;20968;-75
2021/08/03 06:50:52;;;;;;;8.40;5.97;;;;;;;25.40;73.51;101087.71;1741920;81;20992;-81
2021/08/03 06:53:18;;;;;;;13.60;6.35;;;;;;;25.56;73.07;101088.84;1743636;81;21123;-74
2021/08/03 06:55:48;;;;;;;9.28;5.55;;;;;;;25.70;71.60;101096.76;1744063;81;21547;-77
2021/08/03 06:58:29;;;;;;;12.35;5.65;;;;;;;25.79;71.50;101093.46;1752282;81;20960;-76
2021/08/03 07:01:02;;;;;;;13.90;5.60;;;;;;;25.84;70.98;101099.05;1681096;84;21140;-76
2021/08/03 07:03:35;;;;;;;13.13;5.92;;;;;;;25.88;70.26;101100.30;1707723;82;20951;-75
2021/08/03 07:06:02;;;;;;;24.20;6.95;;;;;;;25.91;69.97;101103.11;1707272;82;21102;-75
2021/08/03 07:08:34;;;;;;;16.42;6.65;;;;;;;25.96;69.96;101113.48;1708497;84;21124;-75
2021/08/03 07:11:00;;;;;;;;;;;;;;;26.05;69.71;101115.50;1706742;84;21048;-77
2021/08/03 07:13:27;;;;;;;12.60;6.28;;;;;;;26.22;69.29;101119.58;1666943;86;20100;-75
2021/08/03 07:15:57;;;;;;;8.30;5.95;;;;;;;26.39;67.65;101125.45;1667342;86;21123;-75
2021/08/03 07:18:24;;;;;;;9.73;5.62;;;;;;;26.52;67.35;101128.19;1651881;86;21268;-77
2021/08/03 07:20:51;;;;;;;9.40;6.50;;;;;;;26.65;67.00;101129.12;1721460;83;21689;-76
2021/08/03 07:23:20;;;;;;;10.00;5.83;;;;;;;26.75;66.00;101128.77;1721808;83;20920;-77
2021/08/03 07:25:50;;;;;;;13.10;6.85;;;;;;;26.80;65.50;101127.19;1721897;83;21022;-76
2021/08/03 07:28:19;;;;;;;11.12;6.53;;;;;;;26.87;65.91;101130.44;1722283;83;21052;-79
2021/08/03 07:30:47;;;;;;;14.47;5.97;;;;;;;26.90;65.49;101133.50;1722006;83;21016;-74
2021/08/03 07:33:16;;;;;;;11.75;5.42;;;;;;;26.93;64.59;101145.09;1703868;83;21145;-78
2021/08/03 07:35:43;;;;;;;10.63;5.78;;;;;;;27.00;64.89;101140.63;1722214;82;21743;-75
2021/08/03 07:38:14;;;;;;;10.30;6.05;;;;;;;27.07;64.57;101148.16;1722066;83;21558;-76
2021/08/03 07:40:42;;;;;;;9.43;6.47;;;;;;;27.17;64.36;101131.30;1721887;83;20967;-76
2021/08/03 07:43:09;;;;;;;11.63;6.05;;;;;;;27.22;63.51;101126.19;1722014;83;21526;-76
2021/08/03 07:45:37;;;;;;;11.75;7.15;;;;;;;27.28;63.67;101128.59;1721946;83;21121;-77
2021/08/03 07:48:08;;;;;;;14.40;7.78;;;;;;;27.34;63.56;101129.95;1722739;83;20960;-76
2021/08/03 07:50:36;;;;;;;13.88;6.78;;;;;;;27.45;62.90;101127.24;1723024;83;21030;-77
2021/08/03 07:53:04;;;;;;;9.28;5.55;;;;;;;27.54;62.77;101128.70;1722230;83;21034;-76
2021/08/03 07:55:31;;;;;;;14.47;6.17;;;;;;;27.64;62.51;101126.98;1687614;85;21585;-76
2021/08/03 07:57:58;;;;;;;10.20;6.00;;;;;;;27.67;61.85;101132.74;1687458;85;21126;-78
2021/08/03 08:00:27;;;;;;;15.75;7.33;;;;;;;27.68;62.30;101134.39;1688049;85;20947;-76
2021/08/03 08:02:56;;;;;;;8.38;6.15;;;;;;;27.72;61.92;101134.31;1703912;83;21456;-75
2021/08/03 08:05:23;;;;;;;9.23;5.95;;;;;;;27.75;61.50;101139.75;1691259;83;20958;-75
2021/08/03 08:07:51;;;;;;;11.33;5.17;;;;;;;27.78;61.91;101142.02;1713814;83;21026;-76
2021/08/03 08:10:23;;;;;;;8.48;5.20;;;;;;;27.84;60.67;101141.20;1709500;83;21039;-73
2021/08/03 08:12:51;;;;;;;9.65;5.47;;;;;;;27.83;60.03;101134.21;1679673;85;21501;-77
2021/08/03 08:15:18;;;;;;;10.05;5.05;;;;;;;27.81;59.71;101136.27;1638491;86;33081;-76
2021/08/03 08:17:45;;;;;;;7.78;5.10;;;;;;;27.80;59.27;101139.95;1667279;86;21475;-78
2021/08/03 08:20:13;;;;;;;12.73;5.80;;;;;;;27.79;59.39;101139.13;1686088;84;21075;-76
2021/08/03 08:22:42;;;;;;;7.67;5.85;;;;;;;27.80;59.13;101138.62;1698312;84;21535;-79
2021/08/03 08:25:10;;;;;;;9.53;5.45;;;;;;;27.83;59.50;101134.21;1697860;84;21550;-82
2021/08/03 08:27:41;;;;;;;6.42;4.75;;;;;;;27.92;58.96;101142.87;1668995;84;21472;-78
2021/08/03 08:30:09;;;;;;;10.90;5.95;;;;;;;27.99;58.44;101137.00;1669991;84;21011;-75
2021/08/03 08:32:36;;;;;;;11.50;5.40;;;;;;;28.05;58.11;101138.38;1697881;84;21472;-76
2021/08/03 08:35:04;;;;;;;9.00;5.40;;;;;;;28.12;58.62;101133.05;1697843;84;21070;-74
2021/08/03 08:37:31;;;;;;;7.47;5.08;;;;;;;28.19;58.46;101130.70;1697824;84;21738;-74
2021/08/03 08:40:00;;;;;;;13.68;6.35;;;;;;;28.27;58.57;101126.48;1697939;84;20975;-75
2021/08/03 08:42:27;;;;;;;7.85;5.10;;;;;;;28.37;57.86;101126.91;1698030;83;21514;-75
2021/08/03 08:44:55;;;;;;;11.00;5.35;;;;;;;28.42;57.09;101120.95;1698200;84;21669;-78
2021/08/03 08:47:22;;;;;;;7.75;5.15;;;;;;;28.42;57.24;101119.62;1698156;84;21191;-75
2021/08/03 08:49:49;;;;;;;10.00;5.65;;;;;;;28.52;57.17;101123.20;1668803;84;21089;-80
2021/08/03 08:52:16;;;;;;;8.03;5.30;;;;;;;28.59;56.79;101127.50;1697766;84;20940;-73
2021/08/03 08:54:43;;;;;;;14.20;5.45;;;;;;;28.65;56.54;101132.06;1698048;84;21629;-82
2021/08/03 08:57:10;;;;;;;10.30;6.80;;;;;;;28.75;55.42;101139.11;1698072;84;21049;-73
2021/08/03 08:59:37;;;;;;;7.08;4.97;;;;;;;28.85;55.59;101134.67;1698010;84;21480;-75
2021/08/03 09:02:04;;;;;;;9.10;6.20;;;;;;;29.01;52.51;101132.88;1697756;84;21040;-76
2021/08/03 09:04:33;;;;;;;10.70;6.15;;;;;;;29.17;53.56;101136.95;1698027;84;20979;-76
2021/08/03 09:07:07;;;;;;;11.85;7.83;;;;;;;29.34;53.21;101133.62;1697686;84;21055;-75
2021/08/03 09:09:46;;;;;;;11.85;7.03;;;;;;;29.43;52.55;101135.54;1697938;84;20948;-77
2021/08/03 09:12:13;;;;;;;9.10;7.33;;;;;;;29.47;52.42;101140.77;1697805;84;21142;-76
2021/08/03 09:14:42;;;;;;;12.73;8.58;;;;;;;29.47;52.79;101138.09;1697977;84;20987;-77
2021/08/03 09:17:11;;;;;;;10.10;6.70;;;;;;;29.53;51.95;101129.73;1698229;84;21042;-76
2021/08/03 09:19:42;;;;;;;18.92;6.42;;;;;;;29.62;51.37;101129.78;1707074;83;21056;-77
2021/08/03 09:22:23;;;;;;;9.60;5.08;;;;;;;29.67;51.66;101125.45;1721466;83;21572;-77
2021/08/03 09:24:52;;;;;;;8.30;5.10;;;;;;;29.73;51.42;101128.59;1692160;84;21514;-84
2021/08/03 09:27:37;;;;;;;9.33;5.15;;;;;;;29.84;51.15;101131.94;1692314;84;21017;-77
2021/08/03 09:30:06;;;;;;;11.10;5.12;;;;;;;29.93;50.09;101125.83;1721224;83;21085;-80
2021/08/03 09:32:36;;;;;;;7.95;4.28;;;;;;;30.04;50.67;101122.44;1721116;83;20958;-78
2021/08/03 09:35:13;;;;;;;8.48;4.83;;;;;;;30.16;50.34;101118.02;1691945;83;20891;-77
2021/08/03 09:37:42;;;;;;;7.05;5.58;;;;;;;30.29;49.93;101119.25;1691986;84;21123;-80
2021/08/03 09:40:26;;;;;;;9.08;4.42;;;;;;;30.33;49.52;101119.63;1663620;86;21021;-82
2021/08/03 09:43:09;;;;;;;5.50;4.75;;;;;;;30.35;49.35;101114.35;1659827;86;21006;-83
2021/08/03 09:45:48;;;;;;;6.83;4.22;;;;;;;30.36;48.98;101117.34;1677336;85;21059;-79
2021/08/03 09:48:21;;;;;;;9.35;5.20;;;;;;;30.38;49.66;101121.13;1694081;84;21072;-80
2021/08/03 09:51:12;;;;;;;5.78;4.35;;;;;;;30.49;49.66;101128.48;1666835;84;21080;-76
2021/08/03 09:53:52;;;;;;;7.40;4.67;;;;;;;30.59;48.89;101130.66;1682863;85;21063;-77
2021/08/03 09:56:34;;;;;;;7.85;4.53;;;;;;;30.72;47.97;101136.72;1664568;85;21015;-78
2021/08/03 09:59:06;;;;;;;10.03;4.33;;;;;;;30.83;47.20;101134.63;1659421;85;21540;-79
2021/08/03 10:01:40;;;;;;;8.98;4.53;;;;;;;31.01;46.84;101138.39;1681997;85;21068;-78
2021/08/03 10:04:12;;;;;;;5.95;4.40;;;;;;;31.25;47.18;101138.82;1681642;85;21145;-83
2021/08/03 10:06:41;;;;;;;10.85;4.70;;;;;;;31.11;47.39;101136.02;1682367;84;20976;-84
2021/08/03 10:09:09;;;;;;;10.98;4.80;;;;;;;31.00;47.45;101132.73;1698215;84;21047;-79
2021/08/03 10:11:39;;;;;;;7.17;4.00;;;;;;;31.32;47.31;101132.34;1672953;84;20959;-81
2021/08/03 10:14:07;;;;;;;6.75;4.33;;;;;;;32.18;45.97;101124.44;1668927;86;21094;-78
2021/08/03 10:16:33;;;;;;;7.58;4.70;;;;;;;33.28;43.29;101126.67;1695533;84;21727;-85
2021/08/03 10:19:02;;;;;;;8.60;4.40;;;;;;;34.13;41.27;101125.28;1697921;84;21011;-82
2021/08/03 10:21:43;;;;;;;10.23;4.67;;;;;;;34.12;40.80;101128.50;1696026;84;21513;-79
2021/08/03 10:24:25;;;;;;;9.30;5.00;;;;;;;33.67;41.55;101137.11;1677725;84;21095;-81
2021/08/03 10:27:16;;;;;;;9.23;4.83;;;;;;;33.36;42.37;101141.90;1668626;86;20987;-79
2021/08/03 10:29:57;;;;;;;6.28;4.72;;;;;;;33.13;42.20;101147.34;1669252;86;21170;-79
2021/08/03 10:32:44;;;;;;;8.15;4.50;;;;;;;32.80;43.03;101144.46;1668294;86;21134;-80
2021/08/03 10:35:18;;;;;;;7.15;4.60;;;;;;;32.62;43.70;101162.86;1667869;86;21086;-79
2021/08/03 10:38:03;;;;;;;6.42;4.15;;;;;;;32.37;43.29;101164.92;1711396;82;20975;-83
2021/08/03 10:40:50;;;;;;;12.58;4.87;;;;;;;31.91;44.35;101165.08;1711574;83;21122;-78
2021/08/03 10:43:23;;;;;;;7.67;4.65;;;;;;;31.58;45.13;101173.31;1711503;83;20888;-77
2021/08/03 10:46:16;;;;;;;6.37;4.95;;;;;;;31.45;45.66;101175.61;1711497;83;20939;-76
2021/08/03 10:48:45;;;;;;;8.63;4.28;;;;;;;31.50;46.01;101164.22;1711627;83;21468;-79
2021/08/03 10:51:20;;;;;;;12.20;4.60;;;;;;;31.66;46.58;101170.30;1711640;83;20955;-81
2021/08/03 10:54:11;;;;;;;11.22;4.90;;;;;;;31.69;46.29;101178.72;1711544;83;20883;-84
2021/08/03 10:57:02;;;;;;;5.33;4.50;;;;;;;31.56;46.14;101173.52;1723253;82;21091;-77
2021/08/03 10:59:39;;;;;;;6.22;4.10;;;;;;;31.21;46.55;101169.28;1712105;81;21600;-76
2021/08/03 11:02:27;;;;;;;6.97;4.65;;;;;;;30.97;47.62;101168.02;1711616;83;20871;-83
2021/08/03 11:04:57;;;;;;;26.93;6.08;;;;;;;30.81;48.02;101166.20;1711517;83;20907;-75
2021/08/03 11:07:30;;;;;;;8.83;4.53;;;;;;;30.78;48.48;101157.27;1711786;82;20959;-82
2021/08/03 11:10:04;;;;;;;8.28;5.28;;;;;;;30.86;49.10;101150.26;1711741;83;21127;-80
2021/08/03 11:12:46;;;;;;;8.23;4.80;;;;;;;30.97;48.46;101146.06;1711678;82;21034;-79
2021/08/03 11:15:26;;;;;;;13.98;5.10;;;;;;;31.06;48.00;101143.89;1711452;83;20931;-80
2021/08/03 11:18:10;;;;;;;8.73;4.70;;;;;;;31.09;47.56;101143.44;1711057;82;20962;-78
2021/08/03 11:20:47;;;;;;;6.45;4.30;;;;;;;31.14;47.21;101136.91;1709543;81;20987;-75
2021/08/03 11:23:16;;;;;;;7.87;4.30;;;;;;;31.29;47.66;101136.81;1721926;82;22013;-79
2021/08/03 11:25:47;;;;;;;6.90;4.12;;;;;;;31.35;47.05;101141.79;1735613;82;20917;-80
2021/08/03 11:28:22;;;;;;;10.10;4.83;;;;;;;31.32;46.82;101144.41;1732966;82;21642;-80
2021/08/03 11:30:51;;;;;;;7.42;4.42;;;;;;;31.35;47.11;101141.79;1706369;84;21063;-79
2021/08/03 11:33:24;;;;;;;11.65;4.65;;;;;;;31.65;46.61;101141.33;1706303;84;21000;-80
2021/08/03 11:35:51;;;;;;;8.00;4.10;;;;;;;31.69;46.54;101141.66;1709828;82;21120;-83
2021/08/03 11:38:20;;;;;;;4.97;4.40;;;;;;;31.55;46.18;101140.23;1712594;82;21060;-82
2021/08/03 11:40:46;;;;;;;7.87;4.45;;;;;;;31.27;45.89;101138.09;1734362;82;21054;-79